New Hagerstown, Ohio
Current Conditions -  °F | °C
As of 3:53 AM on Saturday 22 Nov 2014 (Local Time) from KPHD Reporting Station
Clear Clear  
Wind Chill: 11°   Ceiling: Unl
Heat Index: 19°   Visibility: 10mi
Dew Point: 10°   Wind: 6mph
Humidity: 68%   Direction: 150°SSE
Pressure: 30.38"   Gusts: NA
Location:  40.4357°N, 81.1746°W
Report Text: KPHD 220853Z AUTO 15005KT 10SM CLR M07/M12 A3038 RMK AO2 SLP301 T10721122 56016
Loading
Personal Weather Stations






























Interactive Weather Map New forecast layout! Learn more

10-Day Weather Forecast

Advertisements
Track Severe Weather on mobile